Latest Weather Observations for Sheoaks

IDV60901

Issued at 4:41 pm EST Thursday 5 May 2016 (issued every 10 minutes, with the page automatically refreshed every 10 minutes)

About weather observations | Map of Melbourne area stations | Latest observations for Melbourne area | Other Formats
Station Details ID: 087168 Name: SHEOAKS Lat: -37.91 Lon: 144.13 Height: 236.7 m
Data from the previous 72 hours. | See also: Recent months at Sheoaks
Date/Time
EST
Tmp

°C
App
Tmp
°C
Dew
Point
°C
Rel
Hum
%
Delta-T

°C
Wind Press
QNH
hPa
Press
MSL
hPa
Rain
since
9 am
mm
Dir
 
Spd
km/h
Gust
km/h
Spd
kts
Gust
kts
05/04:37pm 19.6 13.9 8.3 48 5.9 NNW 28 46 15 25 1011.7 1011.7 0.0
05/04:30pm 19.8 14.9 8.5 48 6.0 NNW 24 43 13 23 1011.7 1011.7 0.0
05/04:01pm 20.0 13.4 8.4 47 6.1 NNW 33 54 18 29 1011.6 1011.6 0.0
05/04:00pm 20.0 13.1 8.7 48 6.0 NNW 35 54 19 29 1011.7 1011.7 0.0
05/03:39pm 20.1 14.4 8.4 47 6.2 NNW 28 52 15 28 1011.6 1011.6 0.0
05/03:30pm 20.2 15.3 8.5 47 6.2 NNW 24 43 13 23 1011.9 1011.9 0.0
05/03:09pm 19.9 13.9 8.6 48 6.0 NNW 30 50 16 27 1011.9 1011.9 0.0
05/03:00pm 19.9 13.0 8.9 49 5.9 NNW 35 52 19 28 1011.9 1011.9 0.0
05/02:30pm 19.1 12.8 9.0 52 5.4 NNW 32 54 17 29 1011.9 1011.9 0.0
05/02:03pm 19.0 12.4 8.6 51 5.5 NNW 33 54 18 29 1011.9 1011.9 0.0
05/02:00pm 19.0 12.5 8.9 52 5.3 NNW 33 50 18 27 1012.1 1012.1 0.0
05/01:30pm 18.8 12.2 8.7 52 5.3 NNW 33 54 18 29 1012.3 1012.3 0.0
05/01:00pm 19.0 11.6 8.4 50 5.6 NNW 37 57 20 31 1012.6 1012.6 0.0
05/12:30pm 18.7 10.8 7.8 49 5.6 NW 39 61 21 33 1012.7 1012.7 0.0
05/12:00pm 19.0 12.4 8.4 50 5.6 NNW 33 56 18 30 1013.2 1013.2 0.0
05/11:30am 18.0 10.1 8.0 52 5.2 NNW 39 61 21 33 1013.7 1013.8 0.0
05/11:00am 17.7 9.0 7.7 52 5.1 NNW 43 67 23 36 1014.1 1014.2 0.0
05/10:30am 17.1 9.2 7.7 54 4.8 NNW 39 61 21 33 1014.6 1014.7 0.0
05/10:01am 17.2 11.4 7.8 54 4.8 NNW 28 48 15 26 1015.0 1015.1 0.0
05/10:00am 17.2 11.8 7.8 54 4.8 NNW 26 48 14 26 1015.0 1015.1 0.0
05/09:30am 16.5 11.3 7.4 55 4.6 NNW 24 43 13 23 1015.2 1015.3 0.0
05/09:04am 16.6 10.7 7.3 54 4.7 NNW 28 50 15 27 1015.0 1015.1 0.0
05/09:00am 16.6 10.7 7.3 54 4.7 NNW 28 41 15 22 1015.1 1015.2 0.0
05/08:44am 16.1 10.2 7.3 56 4.4 NW 28 46 15 25 1015.0 1015.1 0.0
05/08:30am 15.8 9.9 7.3 57 4.3 NNW 28 41 15 22 1015.1 1015.2 0.0
05/08:00am 15.1 9.9 7.2 59 3.9 NW 24 39 13 21 1015.0 1015.1 0.0
05/07:30am 14.4 9.1 6.7 60 3.8 NNW 24 37 13 20 1015.0 1015.1 0.0
05/07:00am 13.9 9.6 7.0 63 3.4 NNW 19 28 10 15 1014.9 1015.0 0.0
05/06:30am 13.8 9.5 6.9 63 3.4 NNW 19 37 10 20 1014.8 1014.9 0.0
05/06:00am 13.6 9.7 6.9 64 3.3 NNW 17 30 9 16 1014.8 1014.9 0.0
05/05:30am 13.7 9.8 7.0 64 3.3 NNW 17 39 9 21 1014.8 1014.9 0.0
05/05:00am 13.8 9.4 6.7 62 3.5 NNW 19 35 10 19 1014.5 1014.6 0.0
05/04:30am 13.5 10.2 6.4 62 3.4 NNW 13 22 7 12 1014.4 1014.5 0.0
05/04:00am 13.1 10.6 6.7 65 3.1 NNW 9 15 5 8 1014.6 1014.7 0.0
05/03:30am 12.8 10.0 6.8 67 2.9 NNW 11 15 6 8 1014.8 1014.9 0.0
05/03:00am 12.8 9.5 6.6 66 3.0 NNW 13 22 7 12 1015.0 1015.1 0.0
05/02:30am 12.7 9.4 6.5 66 3.0 NNW 13 19 7 10 1015.3 1015.4 0.0
05/02:00am 12.4 9.5 6.7 68 2.8 NNW 11 19 6 10 1015.4 1015.5 0.0
05/01:30am 12.1 9.7 6.8 70 2.6 NNW 9 15 5 8 1015.4 1015.5 0.0
05/01:00am 11.5 9.4 6.8 73 2.3 NNW 7 9 4 5 1015.7 1015.8 0.0
05/12:30am 11.6 9.2 7.1 74 2.2 NNW 9 19 5 10 1015.8 1015.9 0.0
05/12:00am 11.6 9.6 7.3 75 2.1 NNW 7 11 4 6 1016.1 1016.1 0.0
 
Date/Time
EST
Tmp

°C
App
Tmp
°C
Dew
Point
°C
Rel
Hum
%
Delta-T

°C
Wind Press
QNH
hPa
Press
MSL
hPa
Rain
since
9 am
mm
Dir
 
Spd
km/h
Gust
km/h
Spd
kts
Gust
kts
04/11:30pm 11.8 10.0 7.3 74 2.2 NNW 6 9 3 5 1016.1 1016.1 0.0
04/11:00pm 12.4 9.7 7.3 71 2.5 NNW 11 17 6 9 1016.1 1016.1 0.0
04/10:30pm 12.9 9.8 7.1 68 2.8 NW 13 20 7 11 1016.2 1016.2 0.0
04/10:00pm 13.2 9.7 7.2 67 2.9 NW 15 24 8 13 1016.1 1016.1 0.0
04/09:30pm 13.3 10.3 7.5 68 2.9 NNW 13 22 7 12 1016.0 1016.0 0.0
04/09:00pm 13.4 9.6 7.4 67 3.0 NNW 17 26 9 14 1015.8 1015.9 0.0
04/08:30pm 13.5 9.7 7.5 67 3.0 NNW 17 30 9 16 1015.8 1015.9 0.0
04/08:00pm 13.1 9.6 7.1 67 2.9 NNW 15 20 8 11 1015.6 1015.7 0.0
04/07:30pm 13.0 9.8 7.0 67 2.9 NNW 13 22 7 12 1015.5 1015.6 0.0
04/07:00pm 12.9 10.0 6.3 64 3.2 N 11 17 6 9 1015.4 1015.5 0.0
04/06:30pm 13.3 9.9 5.9 61 3.5 N 13 20 7 11 1015.0 1015.1 0.0
04/06:00pm 13.5 9.7 5.9 60 3.6 N 15 24 8 13 1014.5 1014.6 0.0
04/05:30pm 13.7 10.3 5.8 59 3.8 NNW 13 19 7 10 1014.4 1014.5 0.0
04/05:00pm 13.8 10.0 5.7 58 3.9 NNW 15 26 8 14 1014.1 1014.2 0.0
04/04:30pm 14.2 9.3 5.3 55 4.2 NW 20 30 11 16 1013.8 1013.9 0.0
04/04:00pm 14.4 9.7 5.2 54 4.4 NNW 19 32 10 17 1013.9 1014.0 0.0
04/03:30pm 14.9 9.9 4.6 50 4.9 NW 20 35 11 19 1013.8 1013.9 0.0
04/03:00pm 14.7 8.8 4.1 49 4.9 NW 24 35 13 19 1013.9 1014.0 0.0
04/02:30pm 14.7 9.7 4.7 51 4.7 NW 20 33 11 18 1013.8 1013.9 0.0
04/02:00pm 14.6 9.6 4.6 51 4.7 NW 20 37 11 20 1013.8 1013.9 0.0
04/01:30pm 14.4 8.8 5.2 54 4.4 NW 24 41 13 22 1014.0 1014.1 0.0
04/01:00pm 14.9 9.2 5.1 52 4.7 NNW 24 37 13 20 1014.1 1014.2 0.0
04/12:30pm 13.6 8.2 4.7 55 4.2 NW 22 35 12 19 1014.3 1014.4 0.0
04/12:00pm 13.9 8.9 4.5 53 4.4 NW 20 41 11 22 1014.7 1014.8 0.0
04/11:30am 13.9 8.9 4.5 53 4.4 WNW 20 32 11 17 1015.1 1015.2 0.0
04/11:00am 13.2 8.1 4.1 54 4.2 NW 20 30 11 16 1015.1 1015.2 0.0
04/10:30am 12.8 7.4 4.3 56 3.9 NW 22 32 12 17 1015.1 1015.2 0.0
04/10:00am 12.4 7.9 4.4 58 3.7 NW 17 24 9 13 1015.1 1015.2 0.0
04/09:30am 11.8 7.4 5.0 63 3.2 NW 17 28 9 15 1014.9 1015.0 0.0
04/09:00am 10.8 6.8 4.9 67 2.7 NW 15 24 8 13 1015.0 1015.1 1.0
04/08:30am 9.6 5.9 4.4 70 2.3 NNW 13 19 7 10 1014.8 1014.9 1.0
04/08:00am 8.7 5.4 4.3 74 2.0 NNW 11 19 6 10 1014.3 1014.4 1.0
04/07:30am 8.1 4.7 4.1 76 1.8 NNW 11 17 6 9 1013.8 1013.9 1.0
04/07:00am 8.3 5.0 4.3 76 1.8 NNW 11 19 6 10 1013.2 1013.2 1.0
04/06:30am 8.6 4.5 4.4 75 1.9 NW 15 24 8 13 1013.0 1013.0 1.0
04/06:00am 8.4 4.7 4.4 76 1.8 NW 13 20 7 11 1012.7 1012.7 1.0
04/05:30am 8.2 4.5 4.4 77 1.7 NW 13 24 7 13 1012.2 1012.2 1.0
04/05:00am 8.2 4.1 4.4 77 1.7 NW 15 22 8 12 1011.7 1011.7 1.0
04/04:30am 8.1 4.4 4.5 78 1.6 NNW 13 20 7 11 1011.1 1011.2 1.0
04/04:00am 8.1 4.4 4.5 78 1.6 NNW 13 19 7 10 1010.9 1011.0 1.0
04/03:30am 8.3 4.2 4.5 77 1.7 NW 15 20 8 11 1010.7 1010.8 1.0
04/03:00am 8.7 5.8 4.5 75 1.9 NW 9 17 5 9 1010.4 1010.5 1.0
04/02:30am 9.0 5.3 4.6 74 2.0 NW 13 20 7 11 1009.8 1009.9 1.0
04/02:00am 9.2 5.6 4.8 74 2.0 NW 13 20 7 11 1009.6 1009.6 1.0
04/01:30am 9.7 5.7 4.7 71 2.3 NW 15 30 8 16 1009.6 1009.6 1.0
04/01:00am 9.9 5.9 4.9 71 2.3 WNW 15 24 8 13 1009.5 1009.5 1.0
04/12:30am 10.1 5.3 4.7 69 2.5 WNW 19 30 10 16 1009.4 1009.4 1.0
04/12:00am 10.4 6.0 5.0 69 2.5 WNW 17 28 9 15 1009.1 1009.1 1.0
 
Date/Time
EST
Tmp

°C
App
Tmp
°C
Dew
Point
°C
Rel
Hum
%
Delta-T

°C
Wind Press
QNH
hPa
Press
MSL
hPa
Rain
since
9 am
mm
Dir
 
Spd
km/h
Gust
km/h
Spd
kts
Gust
kts
03/11:30pm 10.7 5.8 5.3 69 2.5 WNW 20 37 11 20 1008.7 1008.7 1.0
03/11:00pm 10.7 5.7 4.8 67 2.7 WNW 20 33 11 18 1008.3 1008.3 1.0
03/10:30pm 11.0 6.2 4.5 64 3.0 WNW 19 30 10 16 1007.9 1007.9 1.0
03/10:00pm 11.1 6.2 4.3 63 3.1 WNW 19 28 10 15 1007.5 1007.5 1.0
03/09:30pm 11.1 5.6 4.1 62 3.2 WNW 22 33 12 18 1007.3 1007.3 1.0
03/09:00pm 11.3 5.9 4.5 63 3.1 WNW 22 35 12 19 1006.9 1007.0 1.0
03/08:30pm 11.4 6.0 4.4 62 3.2 WNW 22 37 12 20 1006.5 1006.6 1.0
03/08:00pm 11.8 6.0 4.5 61 3.4 WNW 24 43 13 23 1006.0 1006.0 1.0
03/07:30pm 11.6 7.0 5.7 67 2.8 WNW 19 32 10 17 1005.7 1005.7 1.0
03/07:00pm 11.7 8.2 7.2 74 2.2 WNW 15 22 8 12 1005.4 1005.4 1.0
03/06:30pm 11.5 7.5 8.2 80 1.6 WNW 19 24 10 13 1004.8 1004.8 1.0
03/06:00pm 11.4 5.7 8.4 82 1.5 W 28 43 15 23 1004.3 1004.3 1.0
03/05:30pm 11.3 4.8 8.2 81 1.5 W 32 48 17 26 1003.6 1003.6 0.6
03/05:10pm 12.1 6.3 7.8 75 2.1 W 28 48 15 26 1003.0 1003.0 0.2
03/05:00pm 13.0 8.9 8.5 74 2.3 W 20 30 11 16 1002.9 1002.9 0.0
03/04:30pm 12.8 7.2 8.7 76 2.1 W 28 37 15 20 1002.4 1002.4 0.0
03/04:00pm 12.2 6.2 8.7 79 1.8 WNW 30 44 16 24 1001.8 1001.8 0.0
03/03:39pm 11.7 5.8 9.1 84 1.3 WNW 30 50 16 27 1001.6 1001.6 0.0
03/03:30pm 11.9 5.0 8.9 82 1.5 W 35 54 19 29 1001.4 1001.4 0.0
03/03:00pm 13.0 5.4 10.5 85 1.3 W 41 59 22 32 1000.4 1000.4 0.0
03/02:52pm 13.7 7.2 10.5 81 1.7 W 35 59 19 32 999.7 999.7 0.0
03/02:30pm 18.0 12.0 10.1 60 4.2 NW 32 56 17 30 998.7 998.6 0.0
03/02:00pm 17.3 9.7 10.4 64 3.7 NW 41 67 22 36 998.0 998.0 0.0
03/01:30pm 17.8 10.1 10.2 61 4.1 NW 41 69 22 37 997.6 997.6 0.0
03/01:00pm 17.3 9.1 9.7 61 4.1 NNW 43 67 23 36 997.6 997.6 0.0
03/12:45pm 16.9 7.6 9.3 61 4.0 NNW 48 74 26 40 997.5 997.5 0.0
03/12:44pm 16.9 8.0 9.3 61 4.0 NNW 46 74 25 40 997.3 997.3 0.0
03/12:30pm 17.7 11.0 9.6 59 4.3 NNW 35 57 19 31 997.9 997.9 0.0
03/12:00pm 17.0 8.6 8.9 59 4.3 NNW 43 67 23 36 998.0 998.0 0.0
03/11:30am 16.7 9.4 8.7 59 4.2 NNW 37 57 20 31 998.7 998.6 0.0
03/11:00am 17.2 9.2 8.9 58 4.4 NNW 41 67 22 36 999.0 998.9 0.0
03/10:30am 15.5 6.4 8.3 62 3.7 NNW 46 72 25 39 998.9 998.8 0.0
03/10:00am 15.6 6.0 8.1 61 3.8 NNW 48 80 26 43 999.4 999.4 0.0
03/09:30am 15.3 6.1 8.1 62 3.7 NNW 46 72 25 39 999.0 998.9 0.0
03/09:00am 15.3 6.4 7.8 61 3.8 NNW 44 67 24 36 999.6 999.6 0.0
03/08:45am 15.3 6.6 7.8 61 3.8 NNW 43 83 23 45 999.5 999.5 0.0
03/08:30am 14.8 7.6 7.6 62 3.6 NNW 35 63 19 34 999.6 999.6 0.0
03/08:00am 14.3 6.3 7.6 64 3.4 NNW 39 61 21 33 999.6 999.6 0.0
03/07:30am 13.8 5.9 7.8 67 3.0 NNW 39 61 21 33 999.7 999.7 0.0
03/07:00am 13.8 5.5 7.6 66 3.1 NNW 41 59 22 32 1000.0 1000.0 0.0
03/06:33am 13.9 6.3 7.4 65 3.2 NNW 37 59 20 32 1000.0 1000.0 0.0
03/06:30am 13.8 6.1 7.3 65 3.2 NNW 37 54 20 29 1000.2 1000.2 0.0
03/06:00am 13.9 7.2 7.4 65 3.2 NNW 32 48 17 26 1000.6 1000.6 0.0
03/05:41am 14.0 7.7 7.3 64 3.3 NNW 30 50 16 27 1000.9 1000.9 0.0
03/05:30am 13.9 7.0 7.2 64 3.3 NNW 33 46 18 25 1001.0 1001.0 0.0
03/05:05am 13.9 7.6 7.2 64 3.3 NNW 30 48 16 26 1001.2 1001.2 0.0
03/05:00am 14.0 7.6 7.1 63 3.4 NNW 30 43 16 23 1001.3 1001.3 0.0
03/04:33am 14.0 7.7 7.3 64 3.3 NNW 30 50 16 27 1001.5 1001.5 0.0
03/04:30am 14.1 7.4 7.4 64 3.3 NNW 32 50 17 27 1001.4 1001.4 0.0
03/04:00am 14.4 7.6 7.5 63 3.5 NNW 33 52 18 28 1001.4 1001.4 0.0
03/03:37am 14.4 7.8 7.7 64 3.4 NNW 32 50 17 27 1001.4 1001.4 0.0
03/03:30am 14.4 8.2 7.9 65 3.3 NNW 30 48 16 26 1001.6 1001.6 0.0
03/03:00am 14.2 7.7 8.2 67 3.1 NNW 32 50 17 27 1002.5 1002.5 0.0
03/02:31am 13.8 7.9 7.3 65 3.2 NNW 28 46 15 25 1002.9 1002.9 0.0
03/02:30am 13.8 7.9 7.3 65 3.2 NNW 28 41 15 22 1003.0 1003.0 0.0
03/02:12am 14.0 7.3 7.3 64 3.3 NNW 32 50 17 27 1003.2 1003.2 0.0
03/02:00am 14.1 7.2 7.4 64 3.3 NNW 33 48 18 26 1003.0 1003.0 0.0
03/01:42am 14.0 7.2 6.8 62 3.5 NNW 32 50 17 27 1003.4 1003.4 0.0
03/01:30am 14.0 7.5 6.6 61 3.6 NNW 30 46 16 25 1003.6 1003.6 0.0
03/01:09am 14.2 8.0 6.1 58 3.9 NNW 28 50 15 27 1004.0 1004.0 0.0
03/01:00am 14.2 8.3 5.8 57 4.1 NNW 26 43 14 23 1004.2 1004.2 0.0
03/12:30am 14.3 6.9 5.1 54 4.4 NNW 33 54 18 29 1004.2 1004.2 0.0
03/12:04am 14.4 6.6 4.7 52 4.6 NNW 35 57 19 31 1004.4 1004.4 0.0
03/12:00am 14.4 6.6 4.7 52 4.6 NNW 35 54 19 29 1004.6 1004.6 0.0
 
Date/Time
EST
Tmp

°C
App
Tmp
°C
Dew
Point
°C
Rel
Hum
%
Delta-T

°C
Wind Press
QNH
hPa
Press
MSL
hPa
Rain
since
9 am
mm
Dir
 
Spd
km/h
Gust
km/h
Spd
kts
Gust
kts
02/11:30pm 14.5 7.3 4.8 52 4.6 NNW 32 52 17 28 1004.9 1004.9 0.0
02/11:00pm 14.7 7.2 4.7 51 4.7 NNW 33 54 18 29 1005.3 1005.3 0.0
02/10:49pm 14.8 7.9 4.5 50 4.8 NNW 30 50 16 27 1005.4 1005.4 0.0
02/10:30pm 14.7 8.5 4.4 50 4.8 NNW 26 43 14 23 1005.8 1005.8 0.0
02/10:00pm 14.7 7.4 4.4 50 4.8 NNW 32 48 17 26 1006.0 1006.0 0.0
02/09:30pm 14.4 7.8 4.1 50 4.8 NNW 28 46 15 25 1006.3 1006.4 0.0
02/09:07pm 14.6 7.2 4.0 49 4.9 NNW 32 50 17 27 1006.1 1006.1 0.0
02/09:00pm 14.7 7.3 4.1 49 5.0 NNW 32 50 17 27 1006.1 1006.1 0.0
02/08:30pm 14.4 7.4 4.1 50 4.8 NNW 30 48 16 26 1006.5 1006.6 0.0
02/08:10pm 14.3 7.7 4.0 50 4.8 NNW 28 48 15 26 1006.9 1007.0 0.0
02/08:00pm 14.4 7.0 4.1 50 4.8 NNW 32 46 17 25 1006.8 1006.9 0.0
02/07:36pm 14.4 7.8 4.1 50 4.8 NNW 28 54 15 29 1006.9 1007.0 0.0
02/07:30pm 14.4 8.2 4.1 50 4.8 NNW 26 43 14 23 1006.9 1007.0 0.0
02/07:05pm 14.4 7.8 4.1 50 4.8 NNW 28 48 15 26 1007.0 1007.1 0.0
02/07:00pm 14.3 8.0 4.0 50 4.8 NNW 26 37 14 20 1007.2 1007.2 0.0
02/06:30pm 14.4 8.2 4.1 50 4.8 NNW 26 41 14 22 1007.3 1007.3 0.0
02/06:00pm 14.6 8.4 4.3 50 4.8 NNW 26 43 14 23 1007.3 1007.3 0.0
02/05:30pm 14.9 8.7 4.3 49 5.0 NNW 26 43 14 23 1007.0 1007.1 0.0
02/05:00pm 15.3 8.7 4.1 47 5.3 NNW 28 39 15 21 1007.3 1007.3 0.0

Latest Capital City Observations: Canberra | Sydney | Melbourne | Brisbane | Adelaide | Perth | Hobart | Darwin

Other Formats:

Comma delimited format used in spreadsheet applications
http://www.bom.gov.au/fwo/IDV60901/IDV60901.94863.axf

JavaScript Object Notation format (JSON) in row-major order
http://www.bom.gov.au/fwo/IDV60901/IDV60901.94863.json